Terminal Aerodrome Forecast
Issued by NWS Wichita, KS

Home | Current Version | Previous Version | Text Only | Print | Product List | Glossary On
Versions: 1 2 3 4 5 6 7 8 9 10 11 12 13 14 15 16 17
000
FTUS43 KICT 021120
TAFICT
TAF
KICT 021120Z 0212/0312 04006KT P6SM FEW009 SCT015 BKN250
     FM021600 03009KT P6SM VCTS SCT030 BKN060CB
      TEMPO 0217/0221 -SHRA SCT030 BKN060
     FM022200 03008KT P6SM SCT060 BKN150=

USA.gov is the U.S. government's official web portal to all federal, state and local government web resources and services.